BVLO2: Caney River, Bartlesville, OK

Data processed at Mon Apr 24 2017 21:15


All information presented herein is the property of the government of the United States of America and may be revised or deleted at any time without prior notice.
Dissemination of this information without the expressed written consent of the Public Affairs Office, Tulsa District U.S. Army Corps of Engineers is strictly prohibited.
These data are gathered electronically and, as presented, have not undergone any form of quality control. These data are not guaranteed to be valid or correct.
Go to home page.
Go to station list.
Go to station map.

Upstream stations:

Downstream station:
Previous Day
Next Day
Current Day
    
SHEF ID:       BVLO2     Caney River above Coon Creek at
STATION TYPE:  

               PRECIP     STAGE  RIV-FLOW  BAT-LOAD
                   in        ft       cfs      volt
              Ccp-Rev   Ccp-Rev   Ccp-Rev   Ccp-Rev
(US/Central)
04/24 00:00      0.00      6.74      5931     12.65
04/24 01:00      0.00      6.82      ----     12.65
04/24 02:00      0.00      6.87      ----     12.65
04/24 03:00      0.00      6.91      6157     12.57
04/24 04:00      0.00      6.98      6243     12.57
04/24 05:00      0.00      7.03      6315     12.57
04/24 06:00      0.00      7.04      6329     12.57
04/24 07:00      0.00      7.19      6516     12.57
04/24 08:00      0.00      7.21      6545     12.57
04/24 09:00      0.00      7.23      6566     13.13
04/24 10:00      0.00      7.23      6566     13.68
04/24 11:00      0.00      7.26      6602     14.08
04/24 12:00      0.00      7.26      6602     13.68
04/24 13:00      0.00      7.27      6617     13.68
04/24 14:00      0.00      7.28      6631     13.68
04/24 15:00      0.00      7.28      6631     13.68
04/24 16:00      0.00      7.29      6646     13.53
04/24 17:00      0.00      7.27      6617     12.89
04/24 18:00      0.00      7.29      6646     12.89
04/24 19:00      0.00      7.30      6660     12.89
04/24 20:00      0.00      7.26      6602     12.81
04/24 21:00      0.00      7.25      6588     12.65
04/24 22:00      ----      ----      ----      ----
04/24 23:00      ----      ----      ----      ----